Time;durP1;ratioP1;P1;durP2;ratioP2;P2;SDS_P1;SDS_P2;PMS_P1;PMS_P2;Temp;Humidity;BMP_temperature;BMP_pressure;BME280_temperature;BME280_humidity;BME280_pressure;Samples;Min_cycle;Max_cycle;Signal;HPM_P1;HPM_P2
2022/07/11 00:00:14;;;;;;;16.70;3.50;;;;;;;;;;5036048;28;20041;-70
2022/07/11 00:02:40;;;;;;;10.50;3.05;;;;;;;;;;5043328;28;20435;-69
2022/07/11 00:05:08;;;;;;;8.82;2.83;;;;;;;;;;5025545;28;20029;-70
2022/07/11 00:07:34;;;;;;;10.48;2.85;;;;;;;;;;5042480;28;21432;-68
2022/07/11 00:10:00;;;;;;;12.63;2.40;;;;;;;;;;5040950;28;20033;-69
2022/07/11 00:12:26;;;;;;;7.85;2.75;;;;;;;;;;5042378;28;20025;-68
2022/07/11 00:14:55;;;;;;;10.68;2.72;;;;;;;;;;5047043;28;20487;-69
2022/07/11 00:17:22;;;;;;;7.10;2.40;;;;;;;;;;5048245;28;20050;-68
2022/07/11 00:19:48;;;;;;;11.27;2.83;;;;;;;;;;5047570;28;20914;-68
2022/07/11 00:22:14;;;;;;;15.75;2.97;;;;;;;;;;5046483;28;20064;-69
2022/07/11 00:24:40;;;;;;;8.13;2.50;;;;;;;;;;5044388;28;20044;-68
2022/07/11 00:27:06;;;;;;;8.93;2.85;;;;;;;;;;5044326;28;20036;-68
2022/07/11 00:29:33;;;;;;;8.50;2.78;;;;;;;;;;5046702;28;20036;-69
2022/07/11 00:32:00;;;;;;;10.52;2.75;;;;;;;;;;5041960;28;20073;-69
2022/07/11 00:34:27;;;;;;;7.68;2.90;;;;;;;;;;5042682;28;20032;-68
2022/07/11 00:36:53;;;;;;;9.43;3.13;;;;;;;;;;5042805;28;20454;-69
2022/07/11 00:39:19;;;;;;;9.35;2.88;;;;;;;;;;5045545;28;20075;-68
2022/07/11 00:41:45;;;;;;;11.23;3.35;;;;;;;;;;5043505;28;20142;-68
2022/07/11 00:44:13;;;;;;;6.82;2.63;;;;;;;;;;5045822;28;20124;-70
2022/07/11 00:46:39;;;;;;;7.35;2.72;;;;;;;;;;5045080;28;20029;-69
2022/07/11 00:49:05;;;;;;;14.48;2.83;;;;;;;;;;5047192;28;20134;-69
2022/07/11 00:51:31;;;;;;;13.15;3.35;;;;;;;;;;5046479;28;20041;-69
2022/07/11 00:53:58;;;;;;;9.68;3.00;;;;;;;;;;5045253;28;20091;-68
2022/07/11 00:56:29;;;;;;;9.57;2.83;;;;;;;;;;5040557;28;20044;-69
2022/07/11 00:58:55;;;;;;;7.43;2.72;;;;;;;;;;5045362;28;20028;-70
2022/07/11 01:01:21;;;;;;;8.50;2.63;;;;;;;;;;5044400;28;20445;-69
2022/07/11 01:03:48;;;;;;;11.80;2.50;;;;;;;;;;5039808;28;20167;-69
2022/07/11 01:06:14;;;;;;;7.97;2.47;;;;;;;;;;5046366;28;20044;-69
2022/07/11 01:08:40;;;;;;;8.60;2.80;;;;;;;;;;5041970;28;20094;-69
2022/07/11 01:11:18;;;;;;;10.65;2.70;;;;;;;;;;5036731;28;20022;-70
2022/07/11 01:13:45;;;;;;;9.90;2.70;;;;;;;;;;5039464;28;20033;-70
2022/07/11 01:16:12;;;;;;;11.23;2.58;;;;;;;;;;5045663;28;20032;-70
2022/07/11 01:18:39;;;;;;;5.30;2.45;;;;;;;;;;5044211;28;20033;-70
2022/07/11 01:21:10;;;;;;;7.97;2.67;;;;;;;;;;5043559;28;20443;-69
2022/07/11 01:23:36;;;;;;;8.85;2.63;;;;;;;;;;5040409;28;20105;-69
2022/07/11 01:26:02;;;;;;;9.25;3.47;;;;;;;;;;5043868;28;20037;-71
2022/07/11 01:28:28;;;;;;;12.80;2.90;;;;;;;;;;5044755;28;20052;-69
2022/07/11 01:30:54;;;;;;;7.63;2.95;;;;;;;;;;5042448;28;20732;-69
2022/07/11 01:33:20;;;;;;;10.40;2.90;;;;;;;;;;5044552;28;20041;-69
2022/07/11 01:35:46;;;;;;;8.57;3.03;;;;;;;;;;5046165;28;20028;-69
2022/07/11 01:38:12;;;;;;;8.63;2.80;;;;;;;;;;5044330;28;21041;-69
2022/07/11 01:40:38;;;;;;;12.75;3.05;;;;;;;;;;5042821;28;20028;-69
2022/07/11 01:43:04;;;;;;;10.98;2.40;;;;;;;;;;5039346;28;20486;-67
2022/07/11 01:45:30;;;;;;;4.30;2.50;;;;;;;;;;5043703;28;20112;-68
2022/07/11 01:47:56;;;;;;;8.77;2.72;;;;;;;;;;5040733;28;20067;-68
2022/07/11 01:50:22;;;;;;;6.13;2.67;;;;;;;;;;5045134;28;20025;-70
2022/07/11 01:52:48;;;;;;;7.82;2.70;;;;;;;;;;5041788;28;20494;-69
2022/07/11 01:55:14;;;;;;;11.55;3.70;;;;;;;;;;5040757;28;20116;-69
2022/07/11 01:57:40;;;;;;;9.88;2.90;;;;;;;;;;5044787;28;20045;-69
2022/07/11 02:00:10;;;;;;;7.38;2.75;;;;;;;;;;5041339;28;20032;-69
2022/07/11 02:02:36;;;;;;;10.05;3.25;;;;;;;;;;5036230;28;20044;-70
2022/07/11 02:05:03;;;;;;;7.68;2.83;;;;;;;;;;5047473;28;20073;-69
2022/07/11 02:10:14;;;;;;;6.53;2.72;;;;;;;;;;5042590;28;20040;-68
2022/07/11 02:12:40;;;;;;;7.18;3.10;;;;;;;;;;5042424;28;20041;-70
2022/07/11 02:15:06;;;;;;;9.25;3.42;;;;;;;;;;5042557;28;20044;-69
2022/07/11 02:17:32;;;;;;;6.25;2.88;;;;;;;;;;5037382;28;20043;-68
2022/07/11 02:19:58;;;;;;;6.95;3.05;;;;;;;;;;5044597;28;20136;-69
2022/07/11 02:22:24;;;;;;;8.15;3.67;;;;;;;;;;5042237;28;20482;-69
2022/07/11 02:24:50;;;;;;;12.20;3.00;;;;;;;;;;5045215;28;20036;-69
2022/07/11 02:27:16;;;;;;;6.57;2.97;;;;;;;;;;5036855;28;20029;-69
2022/07/11 02:29:42;;;;;;;6.88;3.33;;;;;;;;;;5033451;28;20029;-69
2022/07/11 02:32:08;;;;;;;8.15;3.08;;;;;;;;;;5042376;28;20087;-68
2022/07/11 02:34:34;;;;;;;5.68;3.22;;;;;;;;;;5044609;28;20115;-69
2022/07/11 02:37:01;;;;;;;6.90;3.50;;;;;;;;;;5042990;28;20049;-69
2022/07/11 02:39:27;;;;;;;9.63;4.70;;;;;;;;;;5041467;28;20108;-69
2022/07/11 02:41:53;;;;;;;7.30;4.13;;;;;;;;;;5044334;28;20112;-68
2022/07/11 02:44:19;;;;;;;9.65;4.43;;;;;;;;;;5040026;28;20037;-68
2022/07/11 02:46:45;;;;;;;9.30;3.95;;;;;;;;;;5040357;28;20384;-69
2022/07/11 02:49:11;;;;;;;8.02;4.20;;;;;;;;;;5037878;28;20029;-68
2022/07/11 02:51:37;;;;;;;9.35;4.90;;;;;;;;;;5039856;28;20517;-69
2022/07/11 02:54:03;;;;;;;5.90;4.10;;;;;;;;;;5038096;28;20025;-69
2022/07/11 02:56:30;;;;;;;7.22;4.32;;;;;;;;;;5042729;28;20061;-68
2022/07/11 02:58:56;;;;;;;9.90;4.35;;;;;;;;;;5041922;28;20067;-69
2022/07/11 03:01:22;;;;;;;8.75;4.43;;;;;;;;;;5041042;28;20542;-69
2022/07/11 03:03:48;;;;;;;8.77;4.68;;;;;;;;;;5038084;28;20124;-68
2022/07/11 03:06:14;;;;;;;7.13;4.30;;;;;;;;;;5041271;28;20031;-68
2022/07/11 03:08:40;;;;;;;9.15;5.30;;;;;;;;;;5042152;28;20487;-69
2022/07/11 03:11:06;;;;;;;9.95;4.97;;;;;;;;;;5042542;28;20029;-69
2022/07/11 03:13:32;;;;;;;7.90;4.43;;;;;;;;;;5044255;28;20098;-70
2022/07/11 03:15:58;;;;;;;7.20;4.50;;;;;;;;;;5041523;28;20025;-69
2022/07/11 03:18:24;;;;;;;9.68;4.70;;;;;;;;;;5042139;28;20487;-69
2022/07/11 03:20:50;;;;;;;9.43;4.38;;;;;;;;;;5045469;28;20041;-68
2022/07/11 03:23:16;;;;;;;10.10;4.30;;;;;;;;;;5052368;28;20033;-68
2022/07/11 03:25:42;;;;;;;6.60;3.65;;;;;;;;;;5040401;28;20044;-70
2022/07/11 03:28:08;;;;;;;9.48;4.93;;;;;;;;;;5045757;28;20029;-69
2022/07/11 03:30:34;;;;;;;13.27;4.78;;;;;;;;;;5042261;28;20126;-68
2022/07/11 03:33:00;;;;;;;8.60;4.00;;;;;;;;;;5048541;28;20064;-69
2022/07/11 03:35:41;;;;;;;12.00;4.28;;;;;;;;;;5045441;28;20079;-69
2022/07/11 03:38:07;;;;;;;8.27;4.00;;;;;;;;;;5044120;28;20036;-69
2022/07/11 03:40:33;;;;;;;6.55;4.13;;;;;;;;;;5043193;28;20025;-69
2022/07/11 03:42:59;;;;;;;8.80;4.53;;;;;;;;;;5048794;28;20116;-70
2022/07/11 03:45:25;;;;;;;12.57;4.57;;;;;;;;;;5046781;28;20040;-69
2022/07/11 03:47:51;;;;;;;15.40;9.38;;;;;;;;;;5046582;28;20028;-69
2022/07/11 03:50:18;;;;;;;9.52;4.63;;;;;;;;;;5045063;28;20025;-70
2022/07/11 03:52:44;;;;;;;11.93;5.53;;;;;;;;;;5045135;28;20124;-69
2022/07/11 03:55:10;;;;;;;11.15;5.45;;;;;;;;;;5044734;28;20037;-68
2022/07/11 03:57:39;;;;;;;11.35;5.07;;;;;;;;;;5046038;28;20045;-68
2022/07/11 04:00:06;;;;;;;10.07;5.25;;;;;;;;;;5047271;28;20100;-68
2022/07/11 04:02:32;;;;;;;10.23;4.80;;;;;;;;;;5044985;28;20029;-69
2022/07/11 04:04:58;;;;;;;10.55;5.07;;;;;;;;;;5047946;28;20091;-68
2022/07/11 04:07:24;;;;;;;12.30;5.80;;;;;;;;;;5048684;28;20029;-68
2022/07/11 04:09:50;;;;;;;12.07;5.85;;;;;;;;;;5046901;28;20042;-69
2022/07/11 04:12:19;;;;;;;14.10;5.00;;;;;;;;;;5044649;28;20490;-68
2022/07/11 04:14:45;;;;;;;17.25;6.38;;;;;;;;;;5043139;28;20138;-69
2022/07/11 04:17:11;;;;;;;9.80;5.18;;;;;;;;;;5040924;28;20172;-69
2022/07/11 04:19:38;;;;;;;10.73;5.20;;;;;;;;;;5047325;28;20049;-68
2022/07/11 04:22:04;;;;;;;16.42;5.70;;;;;;;;;;5045084;28;20037;-69
2022/07/11 04:24:30;;;;;;;16.02;5.25;;;;;;;;;;5045088;28;20037;-69
2022/07/11 04:26:56;;;;;;;11.20;5.55;;;;;;;;;;5045956;28;20029;-69
2022/07/11 04:29:23;;;;;;;18.92;5.70;;;;;;;;;;5041603;28;20033;-69
2022/07/11 04:31:52;;;;;;;10.57;4.85;;;;;;;;;;5043180;28;20086;-69
2022/07/11 04:34:18;;;;;;;11.82;5.72;;;;;;;;;;5044285;28;20064;-69
2022/07/11 04:36:45;;;;;;;16.75;5.60;;;;;;;;;;5039091;28;20021;-69
2022/07/11 04:39:11;;;;;;;10.40;5.50;;;;;;;;;;5044413;28;20038;-70
2022/07/11 04:41:37;;;;;;;11.25;5.55;;;;;;;;;;5040895;28;20025;-69
2022/07/11 04:44:04;;;;;;;14.77;6.57;;;;;;;;;;5045192;28;20046;-69
2022/07/11 04:46:31;;;;;;;13.75;6.55;;;;;;;;;;5042095;28;20032;-69
2022/07/11 04:48:57;;;;;;;14.57;5.70;;;;;;;;;;5044178;28;20036;-70
2022/07/11 04:51:24;;;;;;;13.43;6.30;;;;;;;;;;5043376;28;20128;-71
2022/07/11 04:53:50;;;;;;;13.50;7.68;;;;;;;;;;5045138;28;20041;-69
2022/07/11 04:56:16;;;;;;;12.45;6.10;;;;;;;;;;5044778;28;20025;-70
2022/07/11 04:58:42;;;;;;;13.95;6.95;;;;;;;;;;5041792;28;20055;-70
2022/07/11 05:01:08;;;;;;;10.77;5.72;;;;;;;;;;5043463;28;20025;-69
2022/07/11 05:03:34;;;;;;;9.23;5.38;;;;;;;;;;5046379;28;20057;-69
2022/07/11 05:06:00;;;;;;;13.88;6.45;;;;;;;;;;5045046;28;20049;-69
2022/07/11 05:08:26;;;;;;;12.00;6.25;;;;;;;;;;5047006;28;20055;-69
2022/07/11 05:10:53;;;;;;;10.93;5.90;;;;;;;;;;5041224;28;20031;-69
2022/07/11 05:13:19;;;;;;;11.48;5.45;;;;;;;;;;5043246;28;20486;-68
2022/07/11 05:15:45;;;;;;;11.20;5.30;;;;;;;;;;5041966;28;20037;-68
2022/07/11 05:18:11;;;;;;;12.35;5.20;;;;;;;;;;5046385;28;20095;-68
2022/07/11 05:20:37;;;;;;;7.40;4.20;;;;;;;;;;5045683;28;20029;-69
2022/07/11 05:23:03;;;;;;;10.50;4.50;;;;;;;;;;5034546;28;20037;-69
2022/07/11 05:25:30;;;;;;;12.13;4.43;;;;;;;;;;5042907;28;20033;-69
2022/07/11 05:27:56;;;;;;;9.48;5.00;;;;;;;;;;5043881;28;20482;-69
2022/07/11 05:30:22;;;;;;;8.27;4.35;;;;;;;;;;5046368;28;20043;-69
2022/07/11 05:32:48;;;;;;;12.82;4.07;;;;;;;;;;5045446;28;20040;-69
2022/07/11 05:35:14;;;;;;;6.47;3.72;;;;;;;;;;5046244;28;20037;-69
2022/07/11 05:37:40;;;;;;;7.25;4.13;;;;;;;;;;5042452;28;20712;-68
2022/07/11 05:40:06;;;;;;;15.35;4.05;;;;;;;;;;5041312;28;20048;-68
2022/07/11 05:42:32;;;;;;;9.45;3.75;;;;;;;;;;5042399;28;20466;-68
2022/07/11 05:44:58;;;;;;;8.05;3.30;;;;;;;;;;5045044;28;20124;-69
2022/07/11 05:47:24;;;;;;;6.82;3.63;;;;;;;;;;5041929;28;21762;-71
2022/07/11 05:49:50;;;;;;;7.15;3.35;;;;;;;;;;5040218;28;20030;-69
2022/07/11 05:52:16;;;;;;;5.28;3.30;;;;;;;;;;5045411;28;20045;-69
2022/07/11 05:54:42;;;;;;;7.82;2.85;;;;;;;;;;5045126;28;20044;-70
2022/07/11 05:57:08;;;;;;;9.48;3.47;;;;;;;;;;5044271;28;20025;-70
2022/07/11 05:59:38;;;;;;;5.65;3.05;;;;;;;;;;5042864;28;20106;-70
2022/07/11 06:02:04;;;;;;;4.88;2.83;;;;;;;;;;5040172;28;20066;-70
2022/07/11 06:04:30;;;;;;;5.75;2.47;;;;;;;;;;5043226;28;20090;-69
2022/07/11 06:06:56;;;;;;;7.88;2.70;;;;;;;;;;5044603;28;21410;-71
2022/07/11 06:09:22;;;;;;;5.95;2.90;;;;;;;;;;5043253;28;20474;-72
2022/07/11 06:11:49;;;;;;;6.88;2.72;;;;;;;;;;5039816;28;20022;-72
2022/07/11 06:14:16;;;;;;;6.15;2.88;;;;;;;;;;5041270;28;20030;-72
2022/07/11 06:16:42;;;;;;;6.72;2.55;;;;;;;;;;5039200;28;20017;-73
2022/07/11 06:19:08;;;;;;;6.88;2.55;;;;;;;;;;5038993;28;20086;-72
2022/07/11 06:21:34;;;;;;;5.63;2.45;;;;;;;;;;5044375;28;20025;-71
2022/07/11 06:24:00;;;;;;;4.53;2.33;;;;;;;;;;5039913;28;20041;-71
2022/07/11 06:26:26;;;;;;;4.68;2.22;;;;;;;;;;5042465;28;20029;-71
2022/07/11 06:28:52;;;;;;;7.53;2.10;;;;;;;;;;5048584;28;20044;-72
2022/07/11 06:31:18;;;;;;;5.22;2.45;;;;;;;;;;5046881;28;20398;-74
2022/07/11 06:33:44;;;;;;;3.85;2.13;;;;;;;;;;5036071;28;20103;-72
2022/07/11 06:36:10;;;;;;;4.80;1.90;;;;;;;;;;5037447;28;20095;-72
2022/07/11 06:38:36;;;;;;;6.32;2.30;;;;;;;;;;5044430;28;20106;-71
2022/07/11 06:41:02;;;;;;;5.57;1.70;;;;;;;;;;5037754;28;20033;-69
2022/07/11 06:43:29;;;;;;;4.78;1.70;;;;;;;;;;5037210;28;20120;-71
2022/07/11 06:45:55;;;;;;;4.72;1.60;;;;;;;;;;5034681;28;20112;-71
2022/07/11 06:48:21;;;;;;;6.47;1.60;;;;;;;;;;5037678;28;20026;-73
2022/07/11 06:50:47;;;;;;;2.60;1.10;;;;;;;;;;5039110;28;20025;-73
2022/07/11 06:53:14;;;;;;;1.63;1.00;;;;;;;;;;5044137;28;20036;-72
2022/07/11 06:55:40;;;;;;;3.75;1.30;;;;;;;;;;5044322;28;20028;-72
2022/07/11 06:58:06;;;;;;;4.07;1.17;;;;;;;;;;5047178;28;20036;-71
2022/07/11 07:00:33;;;;;;;2.90;1.20;;;;;;;;;;5042431;28;20041;-72
2022/07/11 07:02:59;;;;;;;3.45;1.15;;;;;;;;;;5043553;28;20060;-73
2022/07/11 07:05:25;;;;;;;4.28;1.23;;;;;;;;;;5042720;28;20060;-72
2022/07/11 07:07:52;;;;;;;1.35;0.77;;;;;;;;;;5047130;28;20107;-72
2022/07/11 07:10:18;;;;;;;4.03;0.90;;;;;;;;;;5042794;28;20470;-72
2022/07/11 07:12:44;;;;;;;7.20;1.10;;;;;;;;;;5047209;28;20064;-74
2022/07/11 07:15:11;;;;;;;3.13;1.20;;;;;;;;;;5034332;28;20036;-72
2022/07/11 07:17:37;;;;;;;1.40;0.98;;;;;;;;;;5044170;28;20040;-72
2022/07/11 07:20:04;;;;;;;1.00;0.70;;;;;;;;;;5048441;28;20029;-73
2022/07/11 07:22:30;;;;;;;2.20;0.90;;;;;;;;;;5047902;28;20455;-72
2022/07/11 07:24:57;;;;;;;1.70;1.05;;;;;;;;;;5044252;28;20033;-73
2022/07/11 07:27:23;;;;;;;1.63;0.80;;;;;;;;;;5047503;28;20544;-71
2022/07/11 07:29:49;;;;;;;1.30;0.70;;;;;;;;;;5042474;28;20033;-73
2022/07/11 07:32:15;;;;;;;2.38;0.95;;;;;;;;;;5040896;28;20018;-73
2022/07/11 07:34:41;;;;;;;1.10;0.80;;;;;;;;;;5048633;28;20025;-73
2022/07/11 07:37:07;;;;;;;2.30;0.85;;;;;;;;;;5045393;28;20071;-74
2022/07/11 07:39:33;;;;;;;1.85;0.90;;;;;;;;;;5038946;28;20049;-72
2022/07/11 07:41:59;;;;;;;2.88;0.95;;;;;;;;;;5028071;28;20041;-72
2022/07/11 07:44:25;;;;;;;2.47;0.90;;;;;;;;;;5038602;28;20172;-73
2022/07/11 07:46:51;;;;;;;1.40;0.82;;;;;;;;;;5041409;28;20029;-72
2022/07/11 07:49:17;;;;;;;3.65;0.90;;;;;;;;;;5047311;28;20025;-72
2022/07/11 07:51:43;;;;;;;4.55;0.75;;;;;;;;;;5039956;28;20117;-72
2022/07/11 07:54:09;;;;;;;1.77;0.50;;;;;;;;;;5037797;28;20060;-73
2022/07/11 07:56:35;;;;;;;3.28;1.02;;;;;;;;;;5027550;28;20546;-70
2022/07/11 07:59:01;;;;;;;1.55;0.68;;;;;;;;;;5029232;28;20128;-72
2022/07/11 08:01:36;;;;;;;3.22;0.80;;;;;;;;;;5041829;28;20095;-73
2022/07/11 08:04:05;;;;;;;2.08;0.93;;;;;;;;;;5048415;28;20041;-73
2022/07/11 08:06:31;;;;;;;1.48;0.70;;;;;;;;;;5042728;28;20475;-72
2022/07/11 08:08:57;;;;;;;1.92;0.93;;;;;;;;;;5042468;28;20041;-71
2022/07/11 08:11:23;;;;;;;1.95;0.68;;;;;;;;;;5043504;28;20033;-72
2022/07/11 08:13:49;;;;;;;1.23;0.68;;;;;;;;;;5052261;28;20211;-71
2022/07/11 08:16:15;;;;;;;1.75;0.82;;;;;;;;;;5046964;28;20052;-73
2022/07/11 08:18:41;;;;;;;0.57;0.50;;;;;;;;;;5037458;28;20025;-71
2022/07/11 08:21:09;;;;;;;2.50;0.60;;;;;;;;;;5035082;28;20038;-73
2022/07/11 08:23:35;;;;;;;1.70;0.80;;;;;;;;;;5041761;28;20694;-72
2022/07/11 08:26:01;;;;;;;0.68;0.52;;;;;;;;;;5052753;28;20506;-73
2022/07/11 08:28:27;;;;;;;2.17;0.82;;;;;;;;;;5051906;28;20506;-72
2022/07/11 08:30:53;;;;;;;1.20;0.50;;;;;;;;;;5042057;28;20104;-72
2022/07/11 08:33:19;;;;;;;1.92;0.70;;;;;;;;;;5039769;28;20033;-73
2022/07/11 08:35:45;;;;;;;3.05;0.70;;;;;;;;;;5052868;28;20025;-72
2022/07/11 08:38:12;;;;;;;0.55;0.30;;;;;;;;;;5038541;28;20368;-73
2022/07/11 08:40:38;;;;;;;0.77;0.50;;;;;;;;;;5051767;28;20104;-73
2022/07/11 08:43:05;;;;;;;0.63;0.40;;;;;;;;;;5051807;28;20051;-73
2022/07/11 08:45:32;;;;;;;0.30;0.30;;;;;;;;;;5039792;28;20771;-72
2022/07/11 08:47:58;;;;;;;0.52;0.45;;;;;;;;;;5033817;28;20036;-72
2022/07/11 08:50:26;;;;;;;1.05;0.60;;;;;;;;;;5038013;28;20067;-70
2022/07/11 08:52:57;;;;;;;0.98;0.43;;;;;;;;;;5035324;28;20042;-71
2022/07/11 08:55:23;;;;;;;1.25;0.80;;;;;;;;;;5054266;28;20040;-71
2022/07/11 08:57:49;;;;;;;7.90;0.75;;;;;;;;;;5049320;28;20037;-73
2022/07/11 09:00:16;;;;;;;1.77;0.50;;;;;;;;;;5050553;28;20035;-71
2022/07/11 09:02:43;;;;;;;1.00;0.60;;;;;;;;;;5049893;28;20055;-73
2022/07/11 09:05:09;;;;;;;0.50;0.50;;;;;;;;;;5042220;28;20061;-73
2022/07/11 09:07:43;;;;;;;0.82;0.60;;;;;;;;;;5049867;28;20080;-73
2022/07/11 09:10:09;;;;;;;0.73;0.60;;;;;;;;;;5041059;28;20037;-73
2022/07/11 09:12:35;;;;;;;7.35;0.80;;;;;;;;;;5040967;28;20036;-71
2022/07/11 09:15:01;;;;;;;1.38;0.68;;;;;;;;;;5050455;28;20033;-73
2022/07/11 09:17:30;;;;;;;2.25;0.80;;;;;;;;;;5046538;28;20059;-71
2022/07/11 09:19:56;;;;;;;0.80;0.50;;;;;;;;;;5042764;28;20410;-74
2022/07/11 09:25:19;;;;;;;1.08;0.50;;;;;;;;;;5050163;28;20071;-72
2022/07/11 09:27:49;;;;;;;2.72;0.50;;;;;;;;;;5039203;28;20039;-73
2022/07/11 09:30:26;;;;;;;0.98;0.60;;;;;;;;;;5042962;28;20029;-73
2022/07/11 09:33:02;;;;;;;1.95;0.60;;;;;;;;;;5043841;28;20017;-74
2022/07/11 09:35:31;;;;;;;2.05;0.73;;;;;;;;;;5042955;28;20125;-72
2022/07/11 09:37:57;;;;;;;0.77;0.65;;;;;;;;;;5049831;28;20029;-72
2022/07/11 09:40:23;;;;;;;0.95;0.60;;;;;;;;;;5047426;28;20044;-71
2022/07/11 09:42:54;;;;;;;0.60;0.40;;;;;;;;;;5050243;28;20222;-72
2022/07/11 09:45:20;;;;;;;1.58;0.65;;;;;;;;;;5046953;28;20169;-72
2022/07/11 09:47:47;;;;;;;0.95;0.60;;;;;;;;;;5042742;28;20099;-73
2022/07/11 09:50:13;;;;;;;0.90;0.60;;;;;;;;;;5048248;28;20060;-73
2022/07/11 09:52:42;;;;;;;2.40;0.50;;;;;;;;;;5048540;28;20040;-72
2022/07/11 09:55:08;;;;;;;1.15;0.55;;;;;;;;;;5030446;28;20060;-72
2022/07/11 09:57:38;;;;;;;1.50;0.50;;;;;;;;;;5031651;28;20042;-73
2022/07/11 10:00:06;;;;;;;0.57;0.40;;;;;;;;;;5037159;28;20339;-72
2022/07/11 10:02:32;;;;;;;1.33;0.65;;;;;;;;;;5042479;28;20302;-73
2022/07/11 10:04:59;;;;;;;1.65;0.60;;;;;;;;;;5034095;28;20519;-73
2022/07/11 10:07:25;;;;;;;4.88;1.60;;;;;;;;;;5031675;28;20022;-73
2022/07/11 10:09:51;;;;;;;1.13;0.60;;;;;;;;;;5049402;28;20029;-73
2022/07/11 10:12:18;;;;;;;1.13;0.80;;;;;;;;;;5051965;28;20021;-73
2022/07/11 10:14:44;;;;;;;2.10;0.70;;;;;;;;;;5052416;28;20032;-73
2022/07/11 10:17:25;;;;;;;1.27;0.70;;;;;;;;;;5039564;28;20549;-74
2022/07/11 10:19:51;;;;;;;2.92;0.80;;;;;;;;;;5040057;28;20029;-73
2022/07/11 10:22:30;;;;;;;0.50;0.50;;;;;;;;;;5053197;28;20029;-73
2022/07/11 10:25:14;;;;;;;1.25;0.57;;;;;;;;;;5034443;28;20033;-72
2022/07/11 10:27:48;;;;;;;0.68;0.60;;;;;;;;;;5047313;28;20151;-73
2022/07/11 10:30:34;;;;;;;1.05;0.50;;;;;;;;;;5051388;28;20032;-73
2022/07/11 10:33:06;;;;;;;0.73;0.50;;;;;;;;;;5046757;28;20028;-73
2022/07/11 10:35:32;;;;;;;2.35;0.50;;;;;;;;;;5047685;28;20499;-74
2022/07/11 10:37:58;;;;;;;0.98;0.65;;;;;;;;;;5052137;28;20048;-73
2022/07/11 10:40:42;;;;;;;2.08;0.50;;;;;;;;;;5046956;28;20029;-72
2022/07/11 10:43:08;;;;;;;3.58;0.60;;;;;;;;;;5043571;28;20064;-70
2022/07/11 10:45:50;;;;;;;0.60;0.40;;;;;;;;;;5052773;28;20316;-73
2022/07/11 10:48:17;;;;;;;0.70;0.40;;;;;;;;;;5036624;28;20021;-73
2022/07/11 10:50:44;;;;;;;2.03;0.60;;;;;;;;;;5039316;28;20030;-72
2022/07/11 10:53:11;;;;;;;2.05;0.57;;;;;;;;;;5044026;28;20515;-72
2022/07/11 10:55:42;;;;;;;0.68;0.40;;;;;;;;;;5052259;28;20104;-70
2022/07/11 10:58:11;;;;;;;4.38;0.63;;;;;;;;;;5038557;28;20029;-72
2022/07/11 11:00:37;;;;;;;2.15;0.60;;;;;;;;;;5039465;28;20040;-73
2022/07/11 11:03:07;;;;;;;1.08;0.40;;;;;;;;;;5051996;28;20033;-73
2022/07/11 11:05:52;;;;;;;1.35;0.60;;;;;;;;;;5051286;28;20434;-72
2022/07/11 11:08:36;;;;;;;1.05;0.60;;;;;;;;;;5043062;28;20034;-73
2022/07/11 11:11:03;;;;;;;4.50;0.60;;;;;;;;;;5043217;28;20025;-74
2022/07/11 11:13:30;;;;;;;0.65;0.45;;;;;;;;;;5047230;28;20032;-73
2022/07/11 11:15:57;;;;;;;1.27;0.40;;;;;;;;;;5046169;28;20040;-74
2022/07/11 11:18:23;;;;;;;1.00;0.60;;;;;;;;;;5046535;28;20550;-74
2022/07/11 11:21:01;;;;;;;2.20;0.80;;;;;;;;;;5049422;28;20113;-73
2022/07/11 11:23:31;;;;;;;1.65;0.50;;;;;;;;;;5048977;28;20037;-73
2022/07/11 11:26:10;;;;;;;0.88;0.60;;;;;;;;;;5044750;28;20061;-74
2022/07/11 11:28:37;;;;;;;0.93;0.40;;;;;;;;;;5046515;28;20025;-73
2022/07/11 11:31:04;;;;;;;1.85;0.45;;;;;;;;;;5041179;28;20471;-75
2022/07/11 11:33:31;;;;;;;0.70;0.40;;;;;;;;;;5049859;28;20103;-74
2022/07/11 11:36:03;;;;;;;2.80;0.70;;;;;;;;;;5048523;28;20095;-74
2022/07/11 11:38:30;;;;;;;1.40;0.50;;;;;;;;;;5038649;28;20026;-75
2022/07/11 11:40:56;;;;;;;2.03;0.73;;;;;;;;;;5033934;28;20060;-73
2022/07/11 11:43:23;;;;;;;1.92;0.60;;;;;;;;;;5048910;28;20129;-74
2022/07/11 11:45:49;;;;;;;2.55;0.70;;;;;;;;;;5051292;28;20036;-73
2022/07/11 11:48:27;;;;;;;1.63;0.70;;;;;;;;;;5036586;28;20113;-75
2022/07/11 11:51:00;;;;;;;3.22;0.70;;;;;;;;;;5049926;28;20025;-75
2022/07/11 11:53:26;;;;;;;3.22;0.75;;;;;;;;;;5050716;28;20033;-75
2022/07/11 11:55:52;;;;;;;0.73;0.60;;;;;;;;;;5052358;28;20063;-75
2022/07/11 11:58:19;;;;;;;0.70;0.50;;;;;;;;;;5053728;28;20510;-76
2022/07/11 12:00:53;;;;;;;2.65;0.60;;;;;;;;;;5050421;28;20044;-75
2022/07/11 12:03:20;;;;;;;1.10;0.40;;;;;;;;;;5046412;28;20279;-75
2022/07/11 12:05:58;;;;;;;0.75;0.40;;;;;;;;;;5035907;28;20033;-74
2022/07/11 12:08:28;;;;;;;1.40;0.60;;;;;;;;;;5034268;28;20084;-76
2022/07/11 12:10:57;;;;;;;1.65;0.50;;;;;;;;;;5038910;28;20044;-75
2022/07/11 12:13:23;;;;;;;0.60;0.50;;;;;;;;;;5046656;28;20025;-73
2022/07/11 12:18:37;;;;;;;2.70;0.50;;;;;;;;;;5042129;28;20056;-76
2022/07/11 12:21:10;;;;;;;1.40;0.60;;;;;;;;;;5036539;28;20033;-75
2022/07/11 12:23:36;;;;;;;2.45;0.75;;;;;;;;;;5054995;28;20047;-74
2022/07/11 12:26:03;;;;;;;1.30;0.68;;;;;;;;;;5040297;28;20418;-76
2022/07/11 12:28:29;;;;;;;0.80;0.50;;;;;;;;;;5046882;28;20486;-75
2022/07/11 12:30:56;;;;;;;1.23;0.50;;;;;;;;;;5053228;28;20033;-75
2022/07/11 12:33:23;;;;;;;0.68;0.50;;;;;;;;;;5054268;28;20080;-75
2022/07/11 12:35:57;;;;;;;0.82;0.50;;;;;;;;;;5038896;28;20474;-75
2022/07/11 12:38:24;;;;;;;0.85;0.40;;;;;;;;;;5037491;28;20140;-75
2022/07/11 12:41:00;;;;;;;0.82;0.50;;;;;;;;;;5052445;28;20032;-75
2022/07/11 12:46:23;;;;;;;1.25;0.50;;;;;;;;;;5047775;28;20107;-75
2022/07/11 12:48:51;;;;;;;1.70;0.70;;;;;;;;;;5054591;28;20045;-77
2022/07/11 12:51:37;;;;;;;2.63;0.60;;;;;;;;;;5054844;28;20052;-76
2022/07/11 12:54:04;;;;;;;0.73;0.43;;;;;;;;;;5054723;28;20028;-75
2022/07/11 12:56:31;;;;;;;0.95;0.50;;;;;;;;;;5044330;28;20026;-76
2022/07/11 12:58:57;;;;;;;1.38;0.50;;;;;;;;;;5043962;28;20033;-76
2022/07/11 13:01:23;;;;;;;0.75;0.50;;;;;;;;;;5050959;28;20207;-76
2022/07/11 13:03:49;;;;;;;1.05;0.50;;;;;;;;;;5051223;28;20025;-76
2022/07/11 13:06:16;;;;;;;0.57;0.43;;;;;;;;;;5031770;28;20041;-75
2022/07/11 13:08:42;;;;;;;1.10;0.40;;;;;;;;;;5043111;28;20101;-76
2022/07/11 13:11:26;;;;;;;1.60;0.60;;;;;;;;;;5051877;28;20043;-75
2022/07/11 13:13:52;;;;;;;3.38;0.70;;;;;;;;;;5053046;28;20036;-76
2022/07/11 13:16:19;;;;;;;0.85;0.63;;;;;;;;;;5045069;28;20053;-76
2022/07/11 13:18:45;;;;;;;0.70;0.55;;;;;;;;;;5046770;28;20036;-76
2022/07/11 13:21:11;;;;;;;4.70;0.57;;;;;;;;;;5045528;28;20108;-75
2022/07/11 13:23:38;;;;;;;2.10;1.05;;;;;;;;;;5043955;28;20064;-77
2022/07/11 13:26:05;;;;;;;0.45;0.38;;;;;;;;;;5044691;28;20029;-77
2022/07/11 13:28:31;;;;;;;4.03;0.80;;;;;;;;;;5047786;28;20123;-76
2022/07/11 13:30:57;;;;;;;1.88;0.73;;;;;;;;;;5045988;28;20388;-75
2022/07/11 13:33:23;;;;;;;3.92;1.02;;;;;;;;;;5047923;28;20029;-75
2022/07/11 13:35:49;;;;;;;2.22;0.80;;;;;;;;;;5041520;28;20496;-76
2022/07/11 13:38:16;;;;;;;1.70;0.70;;;;;;;;;;5044255;28;20067;-76
2022/07/11 13:40:43;;;;;;;1.20;0.43;;;;;;;;;;5047445;28;20104;-76
2022/07/11 13:43:13;;;;;;;2.00;0.68;;;;;;;;;;5043397;28;20049;-77
2022/07/11 13:45:39;;;;;;;6.47;0.70;;;;;;;;;;5038289;28;20431;-75
2022/07/11 13:48:06;;;;;;;2.58;0.60;;;;;;;;;;5048830;28;20036;-76
2022/07/11 13:50:32;;;;;;;3.05;0.68;;;;;;;;;;5041053;28;20087;-76
2022/07/11 13:52:58;;;;;;;3.17;0.50;;;;;;;;;;5042910;28;20045;-76
2022/07/11 13:55:29;;;;;;;1.67;0.50;;;;;;;;;;5045986;28;20029;-76
2022/07/11 13:57:56;;;;;;;2.80;0.70;;;;;;;;;;5047617;28;20093;-77
2022/07/11 14:00:23;;;;;;;1.85;0.70;;;;;;;;;;5047419;28;20036;-76
2022/07/11 14:02:49;;;;;;;1.23;0.60;;;;;;;;;;5051527;28;20032;-76
2022/07/11 14:05:15;;;;;;;1.67;0.68;;;;;;;;;;5051364;28;20044;-76
2022/07/11 14:07:42;;;;;;;3.38;0.82;;;;;;;;;;5050528;28;20048;-76
2022/07/11 14:10:08;;;;;;;1.00;0.70;;;;;;;;;;5049743;28;20072;-76
2022/07/11 14:12:35;;;;;;;2.00;0.75;;;;;;;;;;5050315;28;20025;-76
2022/07/11 14:15:02;;;;;;;1.70;0.52;;;;;;;;;;5052464;28;20047;-79
2022/07/11 14:17:28;;;;;;;1.83;0.65;;;;;;;;;;5047266;28;20033;-75
2022/07/11 14:19:56;;;;;;;1.15;0.70;;;;;;;;;;5035582;28;20097;-76
2022/07/11 14:22:22;;;;;;;1.67;0.70;;;;;;;;;;5050305;28;20062;-74
2022/07/11 14:24:49;;;;;;;3.03;0.68;;;;;;;;;;5054485;28;20045;-75
2022/07/11 14:27:15;;;;;;;1.20;0.60;;;;;;;;;;5057368;28;20020;-76
2022/07/11 14:29:42;;;;;;;3.10;0.70;;;;;;;;;;5058190;28;20036;-76
2022/07/11 14:32:08;;;;;;;7.25;0.93;;;;;;;;;;5034912;28;20057;-77
2022/07/11 14:34:34;;;;;;;1.92;0.60;;;;;;;;;;5060100;28;20033;-77
2022/07/11 14:37:00;;;;;;;1.70;0.65;;;;;;;;;;5055427;28;20043;-77
2022/07/11 14:39:26;;;;;;;1.70;0.65;;;;;;;;;;5054580;28;20398;-78
2022/07/11 14:41:52;;;;;;;4.47;0.88;;;;;;;;;;5053570;28;20033;-77
2022/07/11 14:44:18;;;;;;;7.85;1.00;;;;;;;;;;5053703;28;20021;-73
2022/07/11 14:46:44;;;;;;;1.65;0.90;;;;;;;;;;5050116;28;20026;-76
2022/07/11 14:49:10;;;;;;;1.65;0.85;;;;;;;;;;5047328;28;20272;-75
2022/07/11 14:51:37;;;;;;;2.83;0.60;;;;;;;;;;5041927;28;20063;-76